Time;durP1;ratioP1;P1;durP2;ratioP2;P2;SDS_P1;SDS_P2;PMS_P1;PMS_P2;Temp;Humidity;BMP_temperature;BMP_pressure;BME280_temperature;BME280_humidity;BME280_pressure;Samples;Min_cycle;Max_cycle;Signal;HPM_P1;HPM_P2
2023/01/30 00:01:47;;;;;;;1.90;1.80;;;0.00;99.90;;;;;;5056734;28;20243;-65
2023/01/30 00:04:19;;;;;;;2.10;2.00;;;0.00;99.90;;;;;;5052467;28;20208;-65
2023/01/30 00:06:46;;;;;;;2.13;2.03;;;0.00;99.90;;;;;;5053870;28;20231;-66
2023/01/30 00:09:19;;;;;;;2.00;1.90;;;0.00;99.90;;;;;;5053809;28;20226;-66
2023/01/30 00:11:48;;;;;;;2.00;1.90;;;-0.10;99.90;;;;;;5053750;28;20316;-66
2023/01/30 00:14:15;;;;;;;2.20;2.10;;;-0.20;99.90;;;;;;5053182;28;20267;-65
2023/01/30 00:16:50;;;;;;;1.90;1.80;;;-0.20;99.90;;;;;;5051928;28;20246;-66
2023/01/30 00:19:17;;;;;;;2.40;2.30;;;-0.20;99.90;;;;;;5051087;28;20235;-66
2023/01/30 00:21:56;;;;;;;2.13;2.03;;;-0.30;99.90;;;;;;5051117;28;20316;-66
2023/01/30 00:24:23;;;;;;;1.87;1.77;;;-0.40;99.90;;;;;;5051048;28;20207;-67
2023/01/30 00:26:59;;;;;;;1.87;1.77;;;-0.40;99.90;;;;;;5050241;28;20239;-67
2023/01/30 00:29:31;;;;;;;2.17;2.07;;;-0.40;99.90;;;;;;5050369;28;20211;-66
2023/01/30 00:32:01;;;;;;;2.00;1.90;;;-0.50;99.90;;;;;;5050292;28;20330;-64
2023/01/30 00:34:34;;;;;;;2.00;1.90;;;-0.50;99.90;;;;;;5050447;28;20215;-65
2023/01/30 00:37:07;;;;;;;1.97;1.87;;;-0.50;99.90;;;;;;5051346;28;20204;-66
2023/01/30 00:39:37;;;;;;;2.00;1.90;;;-0.50;99.90;;;;;;5064317;28;20243;-67
2023/01/30 00:47:56;;;;;;;1.97;1.87;;;-0.40;99.90;;;;;;5028728;28;20673;-64
2023/01/30 00:50:41;;;;;;;2.00;1.90;;;-0.30;99.90;;;;;;5028281;28;20204;-65
2023/01/30 00:53:16;;;;;;;1.73;1.63;;;-0.30;99.90;;;;;;5042030;28;20224;-66
2023/01/30 00:55:50;;;;;;;1.90;1.80;;;-0.20;99.90;;;;;;5049335;28;20295;-66
2023/01/30 00:58:17;;;;;;;1.60;1.50;;;-0.20;99.90;;;;;;5045607;28;20289;-65
2023/01/30 01:00:55;;;;;;;2.00;1.90;;;-0.20;99.90;;;;;;5050380;28;20674;-66
2023/01/30 01:03:23;;;;;;;1.83;1.73;;;-0.20;99.90;;;;;;5050597;28;20767;-65
2023/01/30 01:06:04;;;;;;;2.07;1.97;;;-0.10;99.90;;;;;;5050087;28;20219;-64
2023/01/30 01:08:39;;;;;;;1.80;1.70;;;0.00;99.90;;;;;;5050543;28;20242;-65
2023/01/30 01:11:23;;;;;;;2.03;1.93;;;0.10;99.90;;;;;;5049307;28;20203;-66
2023/01/30 01:13:53;;;;;;;1.70;1.60;;;0.10;99.90;;;;;;5051391;28;20243;-66
2023/01/30 01:16:23;;;;;;;2.00;1.90;;;0.20;99.90;;;;;;5051231;28;20294;-67
2023/01/30 01:18:54;;;;;;;1.37;1.37;;;0.30;99.90;;;;;;5051053;28;20241;-66
2023/01/30 01:21:22;;;;;;;1.40;1.40;;;0.30;99.90;;;;;;5050033;28;20227;-67
2023/01/30 01:23:52;;;;;;;1.63;1.53;;;0.40;99.90;;;;;;5050021;28;20300;-67
2023/01/30 01:26:34;;;;;;;1.87;1.77;;;0.40;99.90;;;;;;5049307;28;20204;-64
2023/01/30 01:29:04;;;;;;;1.90;1.80;;;0.40;99.90;;;;;;5050024;28;20738;-65
2023/01/30 01:31:38;;;;;;;2.27;2.10;;;0.40;99.90;;;;;;5050025;28;20228;-65
2023/01/30 01:34:08;;;;;;;1.87;1.77;;;0.40;99.90;;;;;;5050149;28;20242;-65
2023/01/30 01:36:39;;;;;;;1.90;1.80;;;0.40;99.90;;;;;;5049532;28;20287;-65
2023/01/30 01:39:10;;;;;;;1.83;1.73;;;0.40;99.90;;;;;;5054088;28;20208;-66
2023/01/30 01:41:36;;;;;;;2.17;2.07;;;0.30;99.90;;;;;;5053681;28;20224;-68
2023/01/30 01:44:08;;;;;;;1.80;1.70;;;0.10;99.90;;;;;;5054350;28;20283;-66
2023/01/30 01:46:43;;;;;;;2.00;1.87;;;0.00;99.90;;;;;;5052780;28;20250;-66
2023/01/30 01:49:20;;;;;;;1.80;1.70;;;-0.10;99.90;;;;;;5054731;28;20219;-66
2023/01/30 01:51:57;;;;;;;1.90;1.80;;;0.00;99.90;;;;;;5054819;28;20318;-67
2023/01/30 01:54:33;;;;;;;1.90;1.80;;;0.00;99.90;;;;;;5053649;28;20294;-65
2023/01/30 01:57:07;;;;;;;1.80;1.70;;;0.10;99.90;;;;;;5053015;28;20287;-66
2023/01/30 01:59:43;;;;;;;1.70;1.60;;;0.10;99.90;;;;;;5053130;28;20288;-66
2023/01/30 02:02:15;;;;;;;1.80;1.70;;;0.10;99.90;;;;;;5053056;28;20269;-65
2023/01/30 02:05:05;;;;;;;1.80;1.70;;;0.10;99.90;;;;;;5052920;28;20215;-66
2023/01/30 02:07:36;;;;;;;1.77;1.67;;;0.10;99.90;;;;;;5053241;28;20262;-65
2023/01/30 02:10:05;;;;;;;1.90;1.80;;;0.20;99.90;;;;;;5053773;28;20294;-67
2023/01/30 02:12:32;;;;;;;1.80;1.70;;;0.20;99.90;;;;;;5053627;28;20263;-66
2023/01/30 02:15:00;;;;;;;2.10;2.00;;;0.20;99.90;;;;;;5054414;28;20200;-66
2023/01/30 02:17:31;;;;;;;1.60;1.50;;;0.30;99.90;;;;;;5054766;28;20292;-66
2023/01/30 02:20:06;;;;;;;1.73;1.63;;;0.30;99.90;;;;;;5056384;28;20216;-66
2023/01/30 02:23:11;;;;;;;1.93;1.83;;;0.30;99.90;;;;;;5061200;28;20230;-67
2023/01/30 02:26:17;;;;;;;1.80;1.70;;;0.30;99.90;;;;;;5047198;28;20267;-65
2023/01/30 02:29:18;;;;;;;2.00;1.90;;;0.10;99.90;;;;;;4994475;28;20232;-66
2023/01/30 02:31:52;;;;;;;2.00;1.90;;;0.00;99.90;;;;;;5055268;28;20694;-67
2023/01/30 02:34:35;;;;;;;1.77;1.67;;;0.00;99.90;;;;;;5051714;28;20606;-67
2023/01/30 02:37:18;;;;;;;2.00;1.90;;;0.00;99.90;;;;;;5054610;28;20211;-66
2023/01/30 02:39:58;;;;;;;1.80;1.70;;;0.00;99.90;;;;;;5053313;28;20243;-66
2023/01/30 02:42:34;;;;;;;1.80;1.70;;;0.00;99.90;;;;;;5052227;28;20281;-65
2023/01/30 02:45:10;;;;;;;1.83;1.73;;;0.00;99.90;;;;;;5052853;28;20235;-66
2023/01/30 02:47:54;;;;;;;1.70;1.60;;;0.00;99.90;;;;;;5052725;28;20254;-65
2023/01/30 02:50:27;;;;;;;2.00;1.90;;;0.00;99.90;;;;;;5052376;28;20214;-67
2023/01/30 02:52:56;;;;;;;1.97;1.87;;;-0.10;99.90;;;;;;5052093;28;20706;-67
2023/01/30 02:55:26;;;;;;;1.60;1.60;;;-0.20;99.90;;;;;;5051887;28;20208;-66
2023/01/30 02:57:54;;;;;;;1.90;1.80;;;-0.30;99.90;;;;;;5052757;28;20207;-66
2023/01/30 03:00:35;;;;;;;2.10;2.00;;;-0.40;99.90;;;;;;5052237;28;20832;-66
2023/01/30 03:03:21;;;;;;;2.00;1.90;;;-0.50;99.90;;;;;;5052304;28;20306;-66
2023/01/30 03:06:15;;;;;;;2.00;1.90;;;-0.60;99.90;;;;;;5050443;28;20200;-65
2023/01/30 03:08:50;;;;;;;2.10;2.00;;;-0.60;99.90;;;;;;5044904;28;20274;-66
2023/01/30 03:11:23;;;;;;;2.17;2.07;;;-0.60;99.90;;;;;;5053140;28;20209;-66
2023/01/30 03:13:56;;;;;;;2.40;2.30;;;-0.70;99.90;;;;;;5051903;28;20204;-66
2023/01/30 03:16:28;;;;;;;2.27;2.17;;;-0.70;99.90;;;;;;5055706;28;20215;-66
2023/01/30 03:18:57;;;;;;;1.90;1.80;;;-0.60;99.90;;;;;;5055203;28;20663;-67
2023/01/30 03:21:24;;;;;;;2.00;1.90;;;-0.50;99.90;;;;;;5053381;28;20314;-65
2023/01/30 03:23:53;;;;;;;1.93;1.83;;;-0.50;99.90;;;;;;5058452;28;20212;-66
2023/01/30 03:26:24;;;;;;;2.20;2.10;;;-0.50;99.90;;;;;;5056774;28;20243;-65
2023/01/30 03:28:54;;;;;;;2.20;2.10;;;-0.40;99.90;;;;;;5056908;28;20227;-65
2023/01/30 03:31:21;;;;;;;2.33;2.23;;;-0.40;99.90;;;;;;5057115;28;20208;-66
2023/01/30 03:33:48;;;;;;;2.53;2.43;;;-0.40;99.90;;;;;;5057910;28;20279;-66
2023/01/30 03:36:19;;;;;;;2.47;2.27;;;-0.30;99.90;;;;;;5057957;28;20228;-66
2023/01/30 03:38:49;;;;;;;1.93;1.83;;;-0.20;99.90;;;;;;5057966;28;20215;-65
2023/01/30 03:41:19;;;;;;;2.70;2.50;;;-0.10;99.90;;;;;;5053394;28;20306;-66
2023/01/30 03:43:57;;;;;;;2.33;2.23;;;0.00;99.90;;;;;;5052363;28;20758;-66
2023/01/30 03:46:27;;;;;;;2.50;2.40;;;0.10;99.90;;;;;;5052281;28;20208;-67
2023/01/30 03:48:56;;;;;;;2.27;2.17;;;0.10;99.90;;;;;;5052333;28;20757;-67
2023/01/30 03:51:30;;;;;;;2.40;2.30;;;0.30;99.90;;;;;;5052667;28;20238;-65
2023/01/30 03:54:04;;;;;;;2.50;2.30;;;0.40;99.90;;;;;;5052601;28;20398;-66
2023/01/30 03:56:42;;;;;;;2.37;2.27;;;0.50;99.90;;;;;;5052882;28;20265;-66
2023/01/30 03:59:12;;;;;;;2.53;2.40;;;0.50;99.90;;;;;;5056771;28;20210;-65
2023/01/30 04:01:39;;;;;;;2.30;2.20;;;0.70;99.90;;;;;;5052011;28;20725;-65
2023/01/30 04:04:12;;;;;;;3.10;2.90;;;0.80;99.90;;;;;;5053245;28;20302;-67
2023/01/30 04:06:42;;;;;;;2.83;2.63;;;0.90;99.90;;;;;;5054312;28;20200;-66
2023/01/30 04:09:12;;;;;;;2.40;2.30;;;1.00;99.90;;;;;;5056576;28;20312;-65
2023/01/30 04:11:42;;;;;;;2.30;2.20;;;1.00;99.90;;;;;;5059762;28;20234;-66
2023/01/30 04:14:15;;;;;;;2.30;2.20;;;1.00;99.90;;;;;;5058925;28;20204;-66
2023/01/30 04:16:48;;;;;;;2.17;2.07;;;1.00;99.90;;;;;;5056437;28;20219;-67
2023/01/30 04:19:17;;;;;;;2.33;2.23;;;1.00;99.90;;;;;;5061253;28;20222;-66
2023/01/30 04:21:51;;;;;;;2.37;2.27;;;1.10;99.90;;;;;;5061217;28;20259;-65
2023/01/30 04:24:18;;;;;;;2.10;2.00;;;1.10;99.90;;;;;;5051957;28;20249;-63
2023/01/30 04:26:45;;;;;;;2.27;2.17;;;1.10;99.90;;;;;;5052940;28;20212;-68
2023/01/30 04:29:12;;;;;;;2.20;2.10;;;1.10;99.90;;;;;;5052548;28;20227;-66
2023/01/30 04:31:39;;;;;;;1.90;1.80;;;1.20;99.90;;;;;;5053125;28;20228;-66
2023/01/30 04:34:06;;;;;;;1.90;1.80;;;1.20;99.90;;;;;;5052692;28;20287;-66
2023/01/30 04:36:32;;;;;;;2.30;2.20;;;1.30;99.90;;;;;;5052279;28;20925;-66
2023/01/30 04:39:01;;;;;;;2.20;2.10;;;1.20;99.90;;;;;;5052100;28;20200;-66
2023/01/30 04:41:27;;;;;;;2.40;2.30;;;1.20;99.90;;;;;;5052983;28;20295;-66
2023/01/30 04:43:54;;;;;;;2.10;2.00;;;1.30;99.90;;;;;;5051252;28;20204;-66
2023/01/30 04:46:21;;;;;;;1.90;1.80;;;1.30;99.90;;;;;;5051028;28;20211;-65
2023/01/30 04:48:48;;;;;;;2.20;2.10;;;1.30;99.90;;;;;;5051131;28;20234;-66
2023/01/30 04:51:15;;;;;;;2.30;2.20;;;1.30;99.90;;;;;;5051109;28;20212;-66
2023/01/30 04:53:42;;;;;;;2.13;2.03;;;1.30;99.90;;;;;;5051008;28;20184;-65
2023/01/30 04:56:10;;;;;;;2.10;2.00;;;1.40;99.90;;;;;;5050432;28;20212;-65
2023/01/30 04:58:37;;;;;;;2.03;1.93;;;1.50;99.90;;;;;;5050425;28;20200;-67
2023/01/30 05:01:14;;;;;;;2.10;2.00;;;1.50;99.90;;;;;;5050048;28;20760;-66
2023/01/30 05:03:41;;;;;;;2.23;2.13;;;1.60;99.90;;;;;;5050117;28;20207;-64
2023/01/30 05:06:08;;;;;;;2.20;2.10;;;1.60;99.90;;;;;;5050124;28;20199;-65
2023/01/30 05:08:35;;;;;;;2.10;2.00;;;1.60;99.90;;;;;;5050218;28;20311;-66
2023/01/30 05:11:04;;;;;;;1.90;1.80;;;1.60;99.90;;;;;;5050226;28;20212;-65
2023/01/30 05:13:32;;;;;;;2.07;1.97;;;1.60;99.90;;;;;;5053097;28;20578;-66
2023/01/30 05:15:59;;;;;;;1.90;1.80;;;1.70;99.90;;;;;;5055312;28;20210;-67
2023/01/30 05:18:25;;;;;;;2.00;1.90;;;1.70;99.90;;;;;;5054727;28;20710;-66
2023/01/30 05:20:52;;;;;;;2.10;2.00;;;1.70;99.90;;;;;;5054680;28;20208;-66
2023/01/30 05:23:19;;;;;;;2.07;1.97;;;1.70;99.90;;;;;;5054347;28;20234;-65
2023/01/30 05:25:46;;;;;;;2.00;1.90;;;1.70;99.90;;;;;;5054450;28;20210;-66
2023/01/30 05:28:13;;;;;;;2.20;2.10;;;1.70;99.90;;;;;;5054728;28;20217;-67
2023/01/30 05:30:41;;;;;;;2.10;2.00;;;1.70;99.90;;;;;;5054677;28;20896;-66
2023/01/30 05:33:07;;;;;;;2.07;1.97;;;1.70;99.90;;;;;;5054574;28;20238;-65
2023/01/30 05:35:34;;;;;;;2.10;2.00;;;1.70;99.90;;;;;;5053116;28;20208;-64
2023/01/30 05:38:02;;;;;;;2.00;1.90;;;1.80;99.90;;;;;;5053736;28;20674;-66
2023/01/30 05:40:29;;;;;;;2.00;1.90;;;1.80;99.90;;;;;;5053837;28;20200;-66
2023/01/30 05:42:55;;;;;;;1.80;1.70;;;1.80;99.90;;;;;;5055637;28;20248;-64
2023/01/30 05:45:22;;;;;;;2.03;1.93;;;1.80;99.90;;;;;;5056782;28;20909;-65
2023/01/30 05:47:52;;;;;;;2.00;1.90;;;1.90;99.90;;;;;;5056797;28;20636;-67
2023/01/30 05:50:19;;;;;;;1.80;1.70;;;2.00;99.90;;;;;;5053785;28;20597;-66
2023/01/30 05:52:46;;;;;;;1.77;1.67;;;2.00;99.90;;;;;;5053971;28;20229;-65
2023/01/30 05:55:13;;;;;;;1.70;1.60;;;2.10;99.90;;;;;;5057582;28;20204;-67
2023/01/30 05:57:39;;;;;;;1.73;1.63;;;2.20;99.90;;;;;;5064990;28;20203;-65
2023/01/30 06:00:09;;;;;;;1.87;1.77;;;2.20;99.90;;;;;;5054551;28;20199;-65
2023/01/30 06:02:36;;;;;;;1.90;1.80;;;2.20;99.90;;;;;;5054496;28;20232;-66
2023/01/30 06:05:04;;;;;;;2.00;1.90;;;2.20;99.90;;;;;;5055091;28;20215;-66
2023/01/30 06:07:32;;;;;;;1.73;1.63;;;2.20;99.90;;;;;;5054372;28;20214;-64
2023/01/30 06:09:59;;;;;;;1.50;1.50;;;2.20;99.90;;;;;;5054997;28;20220;-67
2023/01/30 06:12:25;;;;;;;1.60;1.50;;;2.20;99.90;;;;;;5053926;28;20219;-65
2023/01/30 06:14:52;;;;;;;1.40;1.40;;;2.30;99.90;;;;;;5053066;28;20294;-67
2023/01/30 06:17:19;;;;;;;1.90;1.80;;;2.30;99.90;;;;;;5053591;28;20210;-67
2023/01/30 06:19:46;;;;;;;1.73;1.63;;;2.30;99.90;;;;;;5052976;28;20690;-65
2023/01/30 06:22:14;;;;;;;1.97;1.87;;;2.40;99.90;;;;;;5053324;28;20220;-66
2023/01/30 06:24:41;;;;;;;1.93;1.83;;;2.40;99.90;;;;;;5052995;28;20204;-67
2023/01/30 06:27:08;;;;;;;2.00;1.90;;;2.40;99.90;;;;;;5052677;28;20239;-65
2023/01/30 06:29:34;;;;;;;2.00;1.90;;;2.40;99.90;;;;;;5053361;28;20227;-66
2023/01/30 06:32:01;;;;;;;1.70;1.60;;;2.40;99.90;;;;;;5053296;28;20231;-65
2023/01/30 06:34:28;;;;;;;1.63;1.53;;;2.40;99.90;;;;;;5053078;28;20302;-65
2023/01/30 06:36:55;;;;;;;1.60;1.60;;;2.50;99.90;;;;;;5052321;28;20215;-67
2023/01/30 06:39:23;;;;;;;1.70;1.60;;;2.60;99.90;;;;;;5053717;28;20204;-68
2023/01/30 06:41:50;;;;;;;1.80;1.70;;;2.50;99.90;;;;;;5054224;28;20249;-65
2023/01/30 06:44:17;;;;;;;1.70;1.60;;;2.50;99.90;;;;;;5054623;28;20218;-66
2023/01/30 06:46:44;;;;;;;1.80;1.70;;;2.60;99.90;;;;;;5054681;28;20291;-65
2023/01/30 06:49:10;;;;;;;1.90;1.80;;;2.60;99.90;;;;;;5053942;28;20245;-63
2023/01/30 06:51:37;;;;;;;1.60;1.50;;;2.60;99.90;;;;;;5049191;28;20769;-66
2023/01/30 06:54:04;;;;;;;1.60;1.50;;;2.80;99.90;;;;;;5054565;28;20204;-65
2023/01/30 06:56:33;;;;;;;2.10;2.00;;;2.60;99.90;;;;;;5053497;28;20200;-65
2023/01/30 06:58:59;;;;;;;1.70;1.60;;;2.70;99.90;;;;;;5052428;28;20206;-66
2023/01/30 07:01:26;;;;;;;1.70;1.60;;;2.70;99.90;;;;;;5052747;28;20246;-67
2023/01/30 07:03:53;;;;;;;1.53;1.43;;;2.70;99.90;;;;;;5052859;28;20204;-67
2023/01/30 07:06:20;;;;;;;1.73;1.63;;;2.70;99.90;;;;;;5051396;28;20206;-65
2023/01/30 07:08:47;;;;;;;2.73;1.63;;;2.70;99.90;;;;;;5052998;28;20204;-65
2023/01/30 07:11:13;;;;;;;1.40;1.40;;;2.70;99.90;;;;;;5052230;28;20306;-67
2023/01/30 07:13:42;;;;;;;1.40;1.40;;;2.80;99.90;;;;;;5052567;28;20210;-65
2023/01/30 07:16:08;;;;;;;1.70;1.60;;;2.80;99.90;;;;;;5052672;28;20649;-67
2023/01/30 07:18:35;;;;;;;1.80;1.70;;;2.80;99.90;;;;;;5053326;28;20208;-66
2023/01/30 07:21:02;;;;;;;1.70;1.60;;;2.90;99.90;;;;;;5054514;28;20242;-66
2023/01/30 07:23:29;;;;;;;1.70;1.60;;;2.90;99.90;;;;;;5054160;28;20214;-67
2023/01/30 07:25:56;;;;;;;1.40;1.40;;;2.90;99.90;;;;;;5053123;28;20954;-65
2023/01/30 07:28:22;;;;;;;1.60;1.50;;;2.90;99.90;;;;;;5053105;28;20218;-65
2023/01/30 07:30:51;;;;;;;1.40;1.40;;;3.00;99.90;;;;;;5051816;28;20227;-66
2023/01/30 07:33:19;;;;;;;1.50;1.47;;;3.00;99.90;;;;;;5051891;28;20276;-66
2023/01/30 07:35:46;;;;;;;1.50;1.50;;;3.00;99.90;;;;;;5051686;28;20210;-66
2023/01/30 07:38:13;;;;;;;1.53;1.53;;;3.00;99.90;;;;;;5050981;28;20783;-67
2023/01/30 07:40:40;;;;;;;1.43;1.43;;;3.00;99.90;;;;;;5055143;28;20204;-66
2023/01/30 07:43:12;;;;;;;1.40;1.40;;;3.10;99.90;;;;;;5066280;28;20251;-64
2023/01/30 07:45:42;;;;;;;1.80;1.70;;;3.10;99.90;;;;;;5057536;28;20311;-66
2023/01/30 07:48:12;;;;;;;1.53;1.50;;;3.10;99.90;;;;;;5051669;28;20211;-66
2023/01/30 07:50:39;;;;;;;1.80;1.70;;;3.00;99.90;;;;;;5051952;28;20246;-65
2023/01/30 07:53:07;;;;;;;1.77;1.67;;;3.00;99.90;;;;;;5052005;28;20232;-71
2023/01/30 07:55:34;;;;;;;1.50;1.50;;;3.10;99.90;;;;;;5051676;28;20214;-67
2023/01/30 07:58:01;;;;;;;1.40;1.40;;;3.20;99.90;;;;;;5051887;28;20208;-66
2023/01/30 08:00:28;;;;;;;1.60;1.50;;;3.20;99.90;;;;;;5050923;28;20200;-66
2023/01/30 08:02:55;;;;;;;1.77;1.67;;;3.20;99.90;;;;;;5052185;28;20724;-67
2023/01/30 08:05:23;;;;;;;1.70;1.60;;;3.20;99.90;;;;;;5051475;28;20241;-67
2023/01/30 08:07:50;;;;;;;1.40;1.40;;;3.30;99.90;;;;;;5051439;28;20204;-66
2023/01/30 08:10:17;;;;;;;1.40;1.40;;;3.30;99.90;;;;;;5050906;28;20232;-65
2023/01/30 08:12:44;;;;;;;1.60;1.50;;;3.30;99.90;;;;;;5051645;28;20224;-66
2023/01/30 08:15:11;;;;;;;1.87;1.77;;;3.30;99.90;;;;;;5051094;28;20232;-65
2023/01/30 08:17:38;;;;;;;1.67;1.57;;;3.40;99.90;;;;;;5051238;28;20215;-66
2023/01/30 08:20:06;;;;;;;1.60;1.60;;;3.40;99.90;;;;;;5060694;28;20224;-65
2023/01/30 08:22:34;;;;;;;1.70;1.60;;;3.40;99.90;;;;;;5059398;28;20223;-66
2023/01/30 08:25:01;;;;;;;1.60;1.50;;;3.40;99.90;;;;;;5061578;28;20277;-65
2023/01/30 08:27:28;;;;;;;1.80;1.70;;;3.40;99.90;;;;;;5070557;28;20242;-66
2023/01/30 08:29:56;;;;;;;1.53;1.50;;;3.50;99.90;;;;;;5053137;28;20223;-64
2023/01/30 08:32:22;;;;;;;1.30;1.30;;;3.50;99.90;;;;;;5051046;28;20228;-66
2023/01/30 08:34:49;;;;;;;1.53;1.43;;;3.50;99.90;;;;;;5061705;28;20339;-66
2023/01/30 08:37:16;;;;;;;1.47;1.40;;;3.50;99.90;;;;;;5051632;28;20256;-68
2023/01/30 08:39:44;;;;;;;1.50;1.40;;;3.60;99.90;;;;;;5051226;28;20204;-66
2023/01/30 08:42:11;;;;;;;1.40;1.40;;;3.60;99.90;;;;;;5051351;28;20253;-68
2023/01/30 08:44:38;;;;;;;1.60;1.50;;;3.70;99.90;;;;;;5051906;28;20207;-66
2023/01/30 08:47:04;;;;;;;1.50;1.50;;;3.70;99.90;;;;;;5050715;28;20617;-66
2023/01/30 08:49:31;;;;;;;1.33;1.33;;;3.70;99.90;;;;;;5051022;28;20211;-68
2023/01/30 08:51:58;;;;;;;1.70;1.60;;;3.80;99.90;;;;;;5050733;28;20231;-65
2023/01/30 08:54:25;;;;;;;1.50;1.40;;;3.80;99.90;;;;;;5051455;28;20292;-65
2023/01/30 08:56:53;;;;;;;1.23;1.23;;;3.90;99.90;;;;;;5049453;28;20204;-67
2023/01/30 08:59:20;;;;;;;1.40;1.37;;;3.90;99.90;;;;;;5049300;28;20302;-66
2023/01/30 09:01:47;;;;;;;1.30;1.30;;;3.90;99.90;;;;;;5050230;28;20220;-67
2023/01/30 09:04:14;;;;;;;1.30;1.30;;;3.90;99.90;;;;;;5051293;28;20207;-66
2023/01/30 09:06:40;;;;;;;1.30;1.30;;;3.90;99.90;;;;;;5050599;28;20286;-66
2023/01/30 09:09:07;;;;;;;1.40;1.40;;;3.90;99.90;;;;;;5050696;28;20208;-67
2023/01/30 09:11:34;;;;;;;1.43;1.43;;;3.90;99.90;;;;;;5050361;28;20600;-66
2023/01/30 09:14:02;;;;;;;1.60;1.50;;;3.90;99.90;;;;;;5050978;28;20208;-67
2023/01/30 09:16:29;;;;;;;1.60;1.50;;;3.90;99.90;;;;;;5052452;28;20214;-65
2023/01/30 09:18:56;;;;;;;1.53;1.50;;;3.90;99.90;;;;;;5053104;28;20299;-66
2023/01/30 09:21:23;;;;;;;1.20;1.20;;;3.90;99.90;;;;;;5051790;28;20200;-66
2023/01/30 09:23:50;;;;;;;1.80;1.70;;;3.90;99.90;;;;;;5050939;28;20211;-66
2023/01/30 09:26:17;;;;;;;1.53;1.50;;;3.90;99.90;;;;;;5050979;28;20204;-68
2023/01/30 09:28:43;;;;;;;1.80;1.70;;;3.90;99.90;;;;;;5052981;28;20299;-67
2023/01/30 09:31:12;;;;;;;1.30;1.30;;;3.80;99.90;;;;;;5064705;28;20295;-65
2023/01/30 09:33:38;;;;;;;1.40;1.40;;;3.80;99.90;;;;;;5054613;28;20577;-67
2023/01/30 09:36:06;;;;;;;1.50;1.40;;;3.80;99.90;;;;;;5050228;28;20218;-65
2023/01/30 09:38:33;;;;;;;1.60;1.60;;;3.80;99.90;;;;;;5049783;28;20713;-67
2023/01/30 09:41:27;;;;;;;1.90;1.80;;;3.80;99.90;;;;;;5049711;28;20306;-66
2023/01/30 09:44:14;;;;;;;1.70;1.60;;;3.80;99.90;;;;;;5048187;28;20208;-66
2023/01/30 09:46:48;;;;;;;1.83;1.73;;;3.80;99.90;;;;;;5049796;28;20647;-64
2023/01/30 09:49:27;;;;;;;1.70;1.60;;;3.80;99.90;;;;;;5049962;28;20218;-65
2023/01/30 09:52:01;;;;;;;1.63;1.60;;;3.90;99.90;;;;;;5054340;28;20238;-66
2023/01/30 09:54:31;;;;;;;1.60;1.60;;;4.00;99.90;;;;;;5059606;28;20215;-66
2023/01/30 09:57:13;;;;;;;1.60;1.50;;;4.00;99.90;;;;;;5050666;28;20204;-64
2023/01/30 09:59:50;;;;;;;1.70;1.60;;;4.10;99.90;;;;;;5053724;28;20211;-66
2023/01/30 10:02:39;;;;;;;1.70;1.60;;;4.10;99.90;;;;;;5055517;28;20232;-67
2023/01/30 10:05:07;;;;;;;1.80;1.70;;;4.10;99.90;;;;;;5057484;28;20207;-66
2023/01/30 10:07:46;;;;;;;1.73;1.63;;;4.20;99.90;;;;;;5055233;28;20294;-65
2023/01/30 10:10:21;;;;;;;2.57;1.63;;;4.20;99.90;;;;;;5054797;28;20224;-67
2023/01/30 10:12:58;;;;;;;1.60;1.50;;;4.20;99.90;;;;;;5054339;28;20241;-66
2023/01/30 10:15:50;;;;;;;1.60;1.50;;;4.20;99.90;;;;;;5053239;28;20199;-65
2023/01/30 10:18:34;;;;;;;1.60;1.50;;;4.20;99.90;;;;;;5053079;28;20603;-68
2023/01/30 10:21:11;;;;;;;1.70;1.60;;;4.20;99.90;;;;;;5052694;28;20208;-66
2023/01/30 10:23:55;;;;;;;1.90;1.80;;;4.20;99.90;;;;;;5053391;28;20208;-66
2023/01/30 10:26:25;;;;;;;1.53;1.53;;;4.30;99.90;;;;;;5053103;28;20204;-66
2023/01/30 10:28:57;;;;;;;1.93;1.83;;;4.30;99.90;;;;;;5053651;28;20761;-66
2023/01/30 10:31:28;;;;;;;1.63;1.57;;;4.30;99.90;;;;;;5052367;28;20232;-65
2023/01/30 10:34:01;;;;;;;1.83;1.73;;;4.10;99.90;;;;;;5053529;28;20204;-67
2023/01/30 10:36:34;;;;;;;1.83;1.73;;;4.40;99.90;;;;;;5051590;28;20579;-67
2023/01/30 10:39:06;;;;;;;1.40;1.40;;;4.40;99.90;;;;;;5053994;28;20200;-65
2023/01/30 10:41:37;;;;;;;1.97;1.87;;;4.50;99.90;;;;;;5052933;28;20220;-66
2023/01/30 10:44:08;;;;;;;1.50;1.50;;;4.50;99.90;;;;;;5052809;28;20210;-66
2023/01/30 10:47:01;;;;;;;1.93;1.83;;;4.60;99.90;;;;;;5052389;28;20390;-67
2023/01/30 10:49:39;;;;;;;1.50;1.50;;;4.60;99.90;;;;;;5052202;28;20200;-67
2023/01/30 10:52:18;;;;;;;1.90;1.80;;;4.60;99.90;;;;;;5052007;28;20609;-66
2023/01/30 10:54:55;;;;;;;1.90;1.80;;;4.60;99.90;;;;;;5052538;28;20215;-65
2023/01/30 10:57:29;;;;;;;2.10;2.00;;;4.60;99.90;;;;;;5052729;28;20210;-67
2023/01/30 11:00:03;;;;;;;1.50;1.50;;;4.50;99.90;;;;;;5051876;28;20200;-68
2023/01/30 11:02:40;;;;;;;1.67;1.60;;;4.60;99.90;;;;;;5052034;28;20228;-67
2023/01/30 11:05:15;;;;;;;1.90;1.80;;;4.60;99.90;;;;;;5051929;28;20582;-67
2023/01/30 11:07:45;;;;;;;1.57;1.57;;;4.50;99.90;;;;;;5053173;28;20209;-65
2023/01/30 11:10:17;;;;;;;1.97;1.87;;;4.50;99.90;;;;;;5052614;28;20582;-65
2023/01/30 11:12:44;;;;;;;2.00;1.90;;;4.40;99.90;;;;;;5052962;28;20235;-68
2023/01/30 11:15:11;;;;;;;2.00;1.90;;;4.40;99.90;;;;;;5052970;28;20204;-66
2023/01/30 11:17:41;;;;;;;1.80;1.70;;;4.40;99.90;;;;;;5060905;28;20219;-65
2023/01/30 11:20:15;;;;;;;2.00;1.90;;;4.40;99.90;;;;;;5061069;28;20675;-67
2023/01/30 11:22:51;;;;;;;1.90;1.80;;;4.40;99.90;;;;;;5051654;28;20232;-66
2023/01/30 11:25:20;;;;;;;2.20;2.10;;;4.30;99.90;;;;;;5051806;28;20204;-66
2023/01/30 11:27:53;;;;;;;2.07;1.97;;;4.30;99.90;;;;;;5051757;28;20232;-64
2023/01/30 11:30:21;;;;;;;2.20;2.10;;;4.30;99.90;;;;;;5051065;28;20290;-66
2023/01/30 11:32:50;;;;;;;2.00;1.90;;;4.20;99.90;;;;;;5051335;28;20228;-65
2023/01/30 11:35:39;;;;;;;2.63;2.50;;;4.10;99.90;;;;;;5047011;28;20227;-66
2023/01/30 11:38:21;;;;;;;2.27;2.17;;;4.20;99.90;;;;;;5050478;28;20204;-65
2023/01/30 11:40:48;;;;;;;2.00;1.90;;;4.20;99.90;;;;;;5043259;28;20197;-67
2023/01/30 11:43:15;;;;;;;2.10;2.00;;;4.20;99.90;;;;;;5051503;28;20242;-66
2023/01/30 11:45:46;;;;;;;2.20;2.10;;;4.10;99.90;;;;;;5051666;28;20242;-66
2023/01/30 11:48:18;;;;;;;2.50;2.40;;;4.10;99.90;;;;;;5047361;28;20210;-66
2023/01/30 11:50:50;;;;;;;1.70;1.70;;;4.10;99.90;;;;;;5047894;28;20655;-67
2023/01/30 11:53:30;;;;;;;2.20;2.10;;;4.10;99.90;;;;;;5050522;28;20231;-66
2023/01/30 11:56:00;;;;;;;2.20;2.10;;;4.10;99.90;;;;;;5062481;28;20618;-67
2023/01/30 11:58:32;;;;;;;2.20;2.10;;;4.10;99.90;;;;;;5070800;28;20203;-66
2023/01/30 12:01:00;;;;;;;2.07;1.97;;;4.10;99.90;;;;;;5051350;28;20214;-67
2023/01/30 12:03:29;;;;;;;2.00;1.90;;;4.00;99.90;;;;;;5051066;28;20220;-66
2023/01/30 12:05:58;;;;;;;2.67;2.50;;;4.10;99.90;;;;;;5050463;28;20230;-65
2023/01/30 12:08:31;;;;;;;2.00;1.90;;;4.10;99.90;;;;;;5050322;28;20320;-66
2023/01/30 12:11:01;;;;;;;1.80;1.70;;;4.20;99.90;;;;;;5050451;28;20677;-67
2023/01/30 12:13:31;;;;;;;2.00;1.90;;;4.30;99.90;;;;;;5050557;28;20572;-66
2023/01/30 12:16:11;;;;;;;2.03;1.93;;;4.20;99.90;;;;;;5050849;28;20208;-66
2023/01/30 12:18:44;;;;;;;1.80;1.70;;;4.30;99.90;;;;;;5051020;28;20215;-65
2023/01/30 12:21:25;;;;;;;1.90;1.80;;;4.30;99.90;;;;;;5049852;28;20230;-67
2023/01/30 12:24:00;;;;;;;1.90;1.80;;;4.30;99.90;;;;;;5050317;28;20212;-66
2023/01/30 12:26:30;;;;;;;2.43;2.23;;;4.30;99.90;;;;;;5051865;28;20686;-66
2023/01/30 12:29:03;;;;;;;1.73;1.63;;;4.40;99.90;;;;;;5052148;28;20212;-66
2023/01/30 12:31:34;;;;;;;2.10;2.00;;;4.40;99.90;;;;;;5052698;28;20242;-67
2023/01/30 12:34:01;;;;;;;2.10;2.00;;;4.40;99.90;;;;;;5051786;28;20212;-66
2023/01/30 12:36:38;;;;;;;1.70;1.60;;;4.50;99.90;;;;;;5051437;28;20214;-66
2023/01/30 12:39:22;;;;;;;1.90;1.80;;;4.50;99.90;;;;;;5051054;28;20207;-65
2023/01/30 12:42:03;;;;;;;2.00;1.90;;;4.50;99.90;;;;;;5050420;28;20737;-65
2023/01/30 12:44:45;;;;;;;1.70;1.60;;;4.50;99.90;;;;;;5050152;28;20544;-68
2023/01/30 12:47:27;;;;;;;1.87;1.77;;;4.70;99.90;;;;;;5050721;28;20832;-66
2023/01/30 12:50:21;;;;;;;1.80;1.70;;;4.60;99.90;;;;;;5051553;28;20203;-67
2023/01/30 12:53:02;;;;;;;1.80;1.70;;;4.60;99.90;;;;;;5052445;28;20231;-68
2023/01/30 12:55:38;;;;;;;1.80;1.70;;;4.60;99.90;;;;;;5050044;28;20588;-67
2023/01/30 12:58:15;;;;;;;1.90;1.80;;;4.60;99.90;;;;;;5048589;28;20223;-66
2023/01/30 13:01:01;;;;;;;2.10;2.00;;;4.50;99.90;;;;;;5052685;28;20265;-66
2023/01/30 13:03:36;;;;;;;1.80;1.70;;;4.60;99.90;;;;;;5060626;28;20219;-66
2023/01/30 13:06:16;;;;;;;1.93;1.83;;;4.50;99.90;;;;;;5050986;28;20594;-66
2023/01/30 13:08:54;;;;;;;2.00;1.90;;;4.60;99.90;;;;;;5048640;28;20211;-67
2023/01/30 13:11:40;;;;;;;1.93;1.83;;;4.60;99.90;;;;;;5050978;28;20219;-68
2023/01/30 13:14:14;;;;;;;2.27;2.17;;;4.60;99.90;;;;;;5050807;28;20203;-67
2023/01/30 13:16:53;;;;;;;2.20;2.10;;;4.50;99.90;;;;;;5049667;28;20203;-68
2023/01/30 13:19:25;;;;;;;1.87;1.77;;;4.50;99.90;;;;;;5049696;28;20237;-66
2023/01/30 13:22:01;;;;;;;2.23;2.13;;;4.50;99.90;;;;;;5049544;28;20224;-65
2023/01/30 13:24:43;;;;;;;1.80;1.70;;;4.50;99.90;;;;;;5050035;28;20203;-66